sensor_id;sensor_type;location;lat;lon;timestamp;pressure;altitude;pressure_sealevel;temperature;humidity
78932;BME280;68331;53.362;55.932;2023-12-28T00:01:30;98446.41;;;0.16;82.24
78932;BME280;68331;53.362;55.932;2023-12-28T00:03:56;98446.34;;;0.19;82.00
78932;BME280;68331;53.362;55.932;2023-12-28T00:06:22;98453.25;;;0.23;81.68
78932;BME280;68331;53.362;55.932;2023-12-28T00:08:48;98444.50;;;0.30;81.58
78932;BME280;68331;53.362;55.932;2023-12-28T00:11:14;98443.56;;;0.34;81.27
78932;BME280;68331;53.362;55.932;2023-12-28T00:13:40;98434.94;;;0.34;81.11
78932;BME280;68331;53.362;55.932;2023-12-28T00:16:06;98435.75;;;0.39;80.97
78932;BME280;68331;53.362;55.932;2023-12-28T00:18:32;98440.03;;;0.40;81.15
78932;BME280;68331;53.362;55.932;2023-12-28T00:20:58;98431.41;;;0.39;81.03
78932;BME280;68331;53.362;55.932;2023-12-28T00:23:24;98415.03;;;0.34;81.26
78932;BME280;68331;53.362;55.932;2023-12-28T00:25:50;98429.50;;;0.51;80.70
78932;BME280;68331;53.362;55.932;2023-12-28T00:28:17;98409.69;;;0.48;80.62
78932;BME280;68331;53.362;55.932;2023-12-28T00:30:43;98404.44;;;0.51;80.67
78932;BME280;68331;53.362;55.932;2023-12-28T00:33:09;98417.47;;;0.48;80.43
78932;BME280;68331;53.362;55.932;2023-12-28T00:35:35;98372.84;;;0.21;80.63
78932;BME280;68331;53.362;55.932;2023-12-28T00:38:00;98421.00;;;0.41;81.03
78932;BME280;68331;53.362;55.932;2023-12-28T00:40:27;98409.84;;;0.36;81.10
78932;BME280;68331;53.362;55.932;2023-12-28T00:42:53;98413.34;;;0.33;81.30
78932;BME280;68331;53.362;55.932;2023-12-28T00:45:19;98413.44;;;0.26;81.17
78932;BME280;68331;53.362;55.932;2023-12-28T00:47:45;98416.78;;;0.35;81.50
78932;BME280;68331;53.362;55.932;2023-12-28T00:50:11;98405.50;;;0.35;81.65
78932;BME280;68331;53.362;55.932;2023-12-28T00:52:42;98369.56;;;0.09;81.49
78932;BME280;68331;53.362;55.932;2023-12-28T00:55:10;98410.81;;;0.27;81.92
78932;BME280;68331;53.362;55.932;2023-12-28T00:57:36;98408.25;;;0.24;82.10
78932;BME280;68331;53.362;55.932;2023-12-28T01:00:02;98390.06;;;0.27;82.03
78932;BME280;68331;53.362;55.932;2023-12-28T01:02:29;98384.91;;;0.26;82.37
78932;BME280;68331;53.362;55.932;2023-12-28T01:04:55;98380.59;;;0.25;82.39
78932;BME280;68331;53.362;55.932;2023-12-28T01:07:21;98371.94;;;0.26;82.41
78932;BME280;68331;53.362;55.932;2023-12-28T01:09:47;98376.22;;;0.28;82.47
78932;BME280;68331;53.362;55.932;2023-12-28T01:12:14;98340.97;;;0.15;82.45
78932;BME280;68331;53.362;55.932;2023-12-28T01:14:40;98359.84;;;0.26;82.40
78932;BME280;68331;53.362;55.932;2023-12-28T01:17:09;98359.78;;;0.29;82.35
78932;BME280;68331;53.362;55.932;2023-12-28T01:19:36;98345.03;;;0.33;82.38
78932;BME280;68331;53.362;55.932;2023-12-28T01:22:02;98346.84;;;0.28;82.22
78932;BME280;68331;53.362;55.932;2023-12-28T01:24:28;98360.59;;;0.31;82.35
78932;BME280;68331;53.362;55.932;2023-12-28T01:26:54;98358.84;;;0.33;82.55
78932;BME280;68331;53.362;55.932;2023-12-28T01:29:22;98355.38;;;0.34;82.25
78932;BME280;68331;53.362;55.932;2023-12-28T01:31:47;98359.66;;;0.37;82.54
78932;BME280;68331;53.362;55.932;2023-12-28T01:34:13;98353.59;;;0.38;82.31
78932;BME280;68331;53.362;55.932;2023-12-28T01:36:39;98353.63;;;0.35;82.25
78932;BME280;68331;53.362;55.932;2023-12-28T01:39:09;98353.75;;;0.27;82.65
78932;BME280;68331;53.362;55.932;2023-12-28T01:41:36;98358.00;;;0.31;82.48
78932;BME280;68331;53.362;55.932;2023-12-28T01:44:02;98349.31;;;0.35;82.29
78932;BME280;68331;53.362;55.932;2023-12-28T01:46:28;98342.28;;;0.43;82.00
78932;BME280;68331;53.362;55.932;2023-12-28T01:48:55;98335.28;;;0.47;82.00
78932;BME280;68331;53.362;55.932;2023-12-28T01:51:23;98340.47;;;0.47;81.99
78932;BME280;68331;53.362;55.932;2023-12-28T01:53:51;98322.41;;;0.41;82.01
78932;BME280;68331;53.362;55.932;2023-12-28T01:56:18;98335.25;;;0.50;81.74
78932;BME280;68331;53.362;55.932;2023-12-28T01:58:46;98337.88;;;0.49;81.62
78932;BME280;68331;53.362;55.932;2023-12-28T02:01:14;98325.00;;;0.42;82.04
78932;BME280;68331;53.362;55.932;2023-12-28T02:03:40;98319.06;;;0.36;82.45
78932;BME280;68331;53.362;55.932;2023-12-28T02:06:07;98301.75;;;0.35;82.66
78932;BME280;68331;53.362;55.932;2023-12-28T02:08:33;98302.59;;;0.38;82.46
78932;BME280;68331;53.362;55.932;2023-12-28T02:10:59;98302.66;;;0.34;82.44
78932;BME280;68331;53.362;55.932;2023-12-28T02:13:25;98288.84;;;0.32;82.71
78932;BME280;68331;53.362;55.932;2023-12-28T02:15:57;98278.38;;;0.38;82.50
78932;BME280;68331;53.362;55.932;2023-12-28T02:18:34;98268.06;;;0.33;82.37
78932;BME280;68331;53.362;55.932;2023-12-28T02:21:04;98222.63;;;0.09;82.58
78932;BME280;68331;53.362;55.932;2023-12-28T02:23:34;98239.56;;;0.32;82.45
78932;BME280;68331;53.362;55.932;2023-12-28T02:26:01;98241.38;;;0.27;82.53
78932;BME280;68331;53.362;55.932;2023-12-28T02:28:27;98236.19;;;0.27;82.63
78932;BME280;68331;53.362;55.932;2023-12-28T02:30:54;98239.50;;;0.36;82.78
78932;BME280;68331;53.362;55.932;2023-12-28T02:33:50;98222.88;;;0.46;82.29
78932;BME280;68331;53.362;55.932;2023-12-28T02:36:23;98225.28;;;0.57;81.94
78932;BME280;68331;53.362;55.932;2023-12-28T02:38:51;98220.88;;;0.62;81.71
78932;BME280;68331;53.362;55.932;2023-12-28T02:41:19;98218.06;;;0.73;81.33
78932;BME280;68331;53.362;55.932;2023-12-28T02:43:47;98208.53;;;0.75;81.44
78932;BME280;68331;53.362;55.932;2023-12-28T02:46:13;98204.97;;;0.81;81.29
78932;BME280;68331;53.362;55.932;2023-12-28T02:48:39;98192.78;;;0.83;81.25
78932;BME280;68331;53.362;55.932;2023-12-28T02:51:06;98197.00;;;0.90;81.07
78932;BME280;68331;53.362;55.932;2023-12-28T02:53:31;98186.50;;;0.95;80.85
78932;BME280;68331;53.362;55.932;2023-12-28T02:55:57;98183.00;;;0.97;80.38
78932;BME280;68331;53.362;55.932;2023-12-28T02:58:23;98179.63;;;0.92;80.31
78932;BME280;68331;53.362;55.932;2023-12-28T03:00:49;98177.97;;;0.89;80.47
78932;BME280;68331;53.362;55.932;2023-12-28T03:03:15;98173.69;;;0.87;80.83
78932;BME280;68331;53.362;55.932;2023-12-28T03:05:41;98173.69;;;0.87;80.92
78932;BME280;68331;53.362;55.932;2023-12-28T03:08:07;98180.59;;;0.88;80.66
78932;BME280;68331;53.362;55.932;2023-12-28T03:10:33;98186.56;;;0.93;80.22
78932;BME280;68331;53.362;55.932;2023-12-28T03:12:59;98177.09;;;0.90;80.31
78932;BME280;68331;53.362;55.932;2023-12-28T03:15:25;98182.22;;;0.92;80.32
78932;BME280;68331;53.362;55.932;2023-12-28T03:17:51;98177.88;;;0.94;80.15
78932;BME280;68331;53.362;55.932;2023-12-28T03:20:17;98173.53;;;0.95;79.92
78932;BME280;68331;53.362;55.932;2023-12-28T03:22:43;98184.88;;;0.90;79.77
78932;BME280;68331;53.362;55.932;2023-12-28T03:25:09;98169.31;;;0.89;79.66
78932;BME280;68331;53.362;55.932;2023-12-28T03:27:35;98175.38;;;0.89;79.69
78932;BME280;68331;53.362;55.932;2023-12-28T03:30:01;98173.56;;;0.93;79.78
78932;BME280;68331;53.362;55.932;2023-12-28T03:32:26;98158.00;;;0.93;79.69
78932;BME280;68331;53.362;55.932;2023-12-28T03:34:53;98169.16;;;0.97;79.38
78932;BME280;68331;53.362;55.932;2023-12-28T03:37:18;98163.03;;;1.01;79.37
78932;BME280;68331;53.362;55.932;2023-12-28T03:39:44;98140.63;;;0.97;79.31
78932;BME280;68331;53.362;55.932;2023-12-28T03:42:13;98130.28;;;0.93;79.01
78932;BME280;68331;53.362;55.932;2023-12-28T03:44:39;98137.13;;;0.98;78.83
78932;BME280;68331;53.362;55.932;2023-12-28T03:47:05;98125.88;;;0.97;78.78
78932;BME280;68331;53.362;55.932;2023-12-28T03:49:31;98125.03;;;0.97;78.58
78932;BME280;68331;53.362;55.932;2023-12-28T03:51:56;98117.31;;;0.92;78.72
78932;BME280;68331;53.362;55.932;2023-12-28T03:54:22;98117.31;;;0.92;78.46
78932;BME280;68331;53.362;55.932;2023-12-28T03:56:48;98122.50;;;0.93;78.43
78932;BME280;68331;53.362;55.932;2023-12-28T03:59:14;98086.41;;;0.81;78.33
78932;BME280;68331;53.362;55.932;2023-12-28T04:01:43;98111.28;;;0.91;78.23
78932;BME280;68331;53.362;55.932;2023-12-28T04:04:10;98099.22;;;0.89;78.16
78932;BME280;68331;53.362;55.932;2023-12-28T04:06:37;98092.19;;;0.94;77.75
78932;BME280;68331;53.362;55.932;2023-12-28T04:09:03;98081.75;;;0.97;77.70
78932;BME280;68331;53.362;55.932;2023-12-28T04:11:29;98062.91;;;0.87;77.56
78932;BME280;68331;53.362;55.932;2023-12-28T04:13:56;98074.78;;;0.99;77.57
78932;BME280;68331;53.362;55.932;2023-12-28T04:16:22;98080.84;;;0.98;77.23
78932;BME280;68331;53.362;55.932;2023-12-28T04:18:48;98073.03;;;1.00;77.49
78932;BME280;68331;53.362;55.932;2023-12-28T04:21:13;98071.31;;;0.99;77.29
78932;BME280;68331;53.362;55.932;2023-12-28T04:23:41;98075.53;;;1.04;77.20
78932;BME280;68331;53.362;55.932;2023-12-28T04:26:07;98074.75;;;1.01;77.51
78932;BME280;68331;53.362;55.932;2023-12-28T04:28:34;98076.41;;;1.03;77.55
78932;BME280;68331;53.362;55.932;2023-12-28T04:31:05;98070.25;;;1.09;77.18
78932;BME280;68331;53.362;55.932;2023-12-28T04:33:32;98070.19;;;1.10;77.05
78932;BME280;68331;53.362;55.932;2023-12-28T04:36:03;98076.25;;;1.11;76.99
78932;BME280;68331;53.362;55.932;2023-12-28T04:38:32;98077.84;;;1.16;76.84
78932;BME280;68331;53.362;55.932;2023-12-28T04:41:00;98029.13;;;0.89;76.85
78932;BME280;68331;53.362;55.932;2023-12-28T04:43:26;98082.97;;;1.20;76.85
78932;BME280;68331;53.362;55.932;2023-12-28T04:45:52;98083.00;;;1.18;76.84
78932;BME280;68331;53.362;55.932;2023-12-28T04:48:18;98064.09;;;1.11;76.70
78932;BME280;68331;53.362;55.932;2023-12-28T04:50:49;98064.16;;;1.10;76.16
78932;BME280;68331;53.362;55.932;2023-12-28T04:53:16;98059.94;;;1.06;76.52
78932;BME280;68331;53.362;55.932;2023-12-28T04:55:42;98064.28;;;1.04;76.51
78932;BME280;68331;53.362;55.932;2023-12-28T04:58:08;98060.78;;;1.05;76.64
78932;BME280;68331;53.362;55.932;2023-12-28T05:00:35;98053.84;;;1.07;76.60
78932;BME280;68331;53.362;55.932;2023-12-28T05:03:01;98046.97;;;1.04;76.23
78932;BME280;68331;53.362;55.932;2023-12-28T05:05:28;98050.28;;;1.11;76.48
78932;BME280;68331;53.362;55.932;2023-12-28T05:07:54;98059.94;;;1.04;76.38
78932;BME280;68331;53.362;55.932;2023-12-28T05:10:20;98034.81;;;1.05;76.59
78932;BME280;68331;53.362;55.932;2023-12-28T05:12:46;98032.91;;;1.13;76.10
78932;BME280;68331;53.362;55.932;2023-12-28T05:15:12;98021.63;;;1.15;76.36
78932;BME280;68331;53.362;55.932;2023-12-28T05:17:38;98013.81;;;1.15;75.77
78932;BME280;68331;53.362;55.932;2023-12-28T05:20:05;98011.09;;;1.20;75.69
78932;BME280;68331;53.362;55.932;2023-12-28T05:22:32;98003.31;;;1.20;75.65
78932;BME280;68331;53.362;55.932;2023-12-28T05:24:57;97996.44;;;1.17;75.79
78932;BME280;68331;53.362;55.932;2023-12-28T05:27:24;97984.47;;;1.12;76.04
78932;BME280;68331;53.362;55.932;2023-12-28T05:29:49;97988.00;;;1.09;75.75
78932;BME280;68331;53.362;55.932;2023-12-28T05:32:15;97981.13;;;1.07;76.02
78932;BME280;68331;53.362;55.932;2023-12-28T05:34:42;97973.13;;;1.16;76.07
78932;BME280;68331;53.362;55.932;2023-12-28T05:37:08;97960.91;;;1.20;75.92
78932;BME280;68331;53.362;55.932;2023-12-28T05:39:34;97970.41;;;1.21;75.64
78932;BME280;68331;53.362;55.932;2023-12-28T05:42:00;97958.38;;;1.16;75.39
78932;BME280;68331;53.362;55.932;2023-12-28T05:44:26;97945.47;;;1.13;75.67
78932;BME280;68331;53.362;55.932;2023-12-28T05:46:52;97924.03;;;1.05;75.49
78932;BME280;68331;53.362;55.932;2023-12-28T05:49:18;97941.25;;;1.09;75.88
78932;BME280;68331;53.362;55.932;2023-12-28T05:51:43;97939.31;;;1.17;75.93
78932;BME280;68331;53.362;55.932;2023-12-28T05:54:09;97928.81;;;1.22;75.33
78932;BME280;68331;53.362;55.932;2023-12-28T05:56:35;97927.81;;;1.28;75.27
78932;BME280;68331;53.362;55.932;2023-12-28T05:59:01;97929.44;;;1.32;75.25
78932;BME280;68331;53.362;55.932;2023-12-28T06:01:27;97913.72;;;1.36;74.94
78932;BME280;68331;53.362;55.932;2023-12-28T06:03:54;97930.00;;;1.43;74.70
78932;BME280;68331;53.362;55.932;2023-12-28T06:06:20;97922.94;;;1.48;74.38
78932;BME280;68331;53.362;55.932;2023-12-28T06:08:46;97917.09;;;1.40;74.26
78932;BME280;68331;53.362;55.932;2023-12-28T06:11:12;97919.69;;;1.40;74.58
78932;BME280;68331;53.362;55.932;2023-12-28T06:13:38;97914.38;;;1.45;74.28
78932;BME280;68331;53.362;55.932;2023-12-28T06:16:04;97918.59;;;1.49;74.01
78932;BME280;68331;53.362;55.932;2023-12-28T06:18:30;97921.88;;;1.55;73.93
78932;BME280;68331;53.362;55.932;2023-12-28T06:20:56;97921.78;;;1.60;73.98
78932;BME280;68331;53.362;55.932;2023-12-28T06:23:22;97921.78;;;1.58;73.71
78932;BME280;68331;53.362;55.932;2023-12-28T06:25:48;97904.50;;;1.57;73.96
78932;BME280;68331;53.362;55.932;2023-12-28T06:28:14;97897.47;;;1.61;73.77
78932;BME280;68331;53.362;55.932;2023-12-28T06:30:40;97887.94;;;1.61;73.63
78932;BME280;68331;53.362;55.932;2023-12-28T06:33:06;97880.97;;;1.62;73.39
78932;BME280;68331;53.362;55.932;2023-12-28T06:35:32;97851.81;;;1.52;73.41
78932;BME280;68331;53.362;55.932;2023-12-28T06:37:58;97842.25;;;1.53;73.69
78932;BME280;68331;53.362;55.932;2023-12-28T06:40:24;97831.06;;;1.51;73.51
78932;BME280;68331;53.362;55.932;2023-12-28T06:42:50;97824.88;;;1.55;73.24
78932;BME280;68331;53.362;55.932;2023-12-28T06:45:16;97814.31;;;1.61;73.16
78932;BME280;68331;53.362;55.932;2023-12-28T06:47:42;97802.91;;;1.67;72.79
78932;BME280;68331;53.362;55.932;2023-12-28T06:50:08;97796.69;;;1.71;72.81
78932;BME280;68331;53.362;55.932;2023-12-28T06:52:34;97768.94;;;1.73;72.45
78932;BME280;68331;53.362;55.932;2023-12-28T06:55:00;97749.69;;;1.78;72.11
78932;BME280;68331;53.362;55.932;2023-12-28T06:57:26;97741.84;;;1.80;72.21
78932;BME280;68331;53.362;55.932;2023-12-28T06:59:52;97733.09;;;1.82;72.17
78932;BME280;68331;53.362;55.932;2023-12-28T07:02:18;97743.50;;;1.82;72.32
78932;BME280;68331;53.362;55.932;2023-12-28T07:04:44;97737.47;;;1.82;71.74
78932;BME280;68331;53.362;55.932;2023-12-28T07:07:10;97732.34;;;1.79;71.94
78932;BME280;68331;53.362;55.932;2023-12-28T07:09:35;97693.28;;;1.52;71.92
78932;BME280;68331;53.362;55.932;2023-12-28T07:12:03;97730.81;;;1.72;71.83
78932;BME280;68331;53.362;55.932;2023-12-28T07:14:29;97735.25;;;1.68;72.00
78932;BME280;68331;53.362;55.932;2023-12-28T07:16:54;97757.00;;;1.66;71.71
78932;BME280;68331;53.362;55.932;2023-12-28T07:19:20;97754.47;;;1.62;71.93
78932;BME280;68331;53.362;55.932;2023-12-28T07:21:46;97761.41;;;1.63;71.89
78932;BME280;68331;53.362;55.932;2023-12-28T07:36:10;97767.13;;;1.75;72.12
78932;BME280;68331;53.362;55.932;2023-12-28T07:38:36;97758.34;;;1.79;71.76
78932;BME280;68331;53.362;55.932;2023-12-28T07:41:04;97759.88;;;1.84;71.66
78932;BME280;68331;53.362;55.932;2023-12-28T07:43:30;97750.31;;;1.86;71.83
78932;BME280;68331;53.362;55.932;2023-12-28T07:45:56;97745.94;;;1.87;71.71
78932;BME280;68331;53.362;55.932;2023-12-28T07:48:22;97736.28;;;1.92;71.48
78932;BME280;68331;53.362;55.932;2023-12-28T07:50:48;97712.88;;;1.92;71.91
78932;BME280;68331;53.362;55.932;2023-12-28T07:53:14;97681.22;;;1.79;71.78
78932;BME280;68331;53.362;55.932;2023-12-28T07:55:40;97694.88;;;1.86;71.86
78932;BME280;68331;53.362;55.932;2023-12-28T07:58:06;97693.28;;;1.82;72.01
78932;BME280;68331;53.362;55.932;2023-12-28T08:00:32;97687.25;;;1.80;72.18
78932;BME280;68331;53.362;55.932;2023-12-28T08:02:59;97686.69;;;1.70;72.29
78932;BME280;68331;53.362;55.932;2023-12-28T08:05:25;97667.94;;;1.60;73.09
78932;BME280;68331;53.362;55.932;2023-12-28T08:07:51;97622.91;;;1.32;72.96
78932;BME280;68331;53.362;55.932;2023-12-28T08:10:16;97643.91;;;1.52;73.44
78932;BME280;68331;53.362;55.932;2023-12-28T08:12:44;97627.69;;;1.46;73.80
78932;BME280;68331;53.362;55.932;2023-12-28T08:15:09;97616.59;;;1.41;74.19
78932;BME280;68331;53.362;55.932;2023-12-28T08:17:35;97605.41;;;1.37;74.37
78932;BME280;68331;53.362;55.932;2023-12-28T08:20:01;97602.91;;;1.34;74.56
78932;BME280;68331;53.362;55.932;2023-12-28T08:22:29;97602.81;;;1.37;75.11
78932;BME280;68331;53.362;55.932;2023-12-28T08:24:55;97591.59;;;1.36;75.10
78932;BME280;68331;53.362;55.932;2023-12-28T08:27:21;97597.63;;;1.37;75.34
78932;BME280;68331;53.362;55.932;2023-12-28T08:29:46;97593.25;;;1.39;75.48
78932;BME280;68331;53.362;55.932;2023-12-28T08:32:13;97576.91;;;1.35;75.76
78932;BME280;68331;53.362;55.932;2023-12-28T08:34:38;97538.50;;;1.19;75.97
78932;BME280;68331;53.362;55.932;2023-12-28T08:37:05;97581.25;;;1.35;76.03
78932;BME280;68331;53.362;55.932;2023-12-28T08:39:31;97556.31;;;1.29;76.38
78932;BME280;68331;53.362;55.932;2023-12-28T08:41:57;97564.59;;;1.14;76.99
78932;BME280;68331;53.362;55.932;2023-12-28T08:44:24;97551.59;;;1.14;77.69
78932;BME280;68331;53.362;55.932;2023-12-28T08:46:50;97544.66;;;1.14;77.80
78932;BME280;68331;53.362;55.932;2023-12-28T08:49:16;97546.47;;;1.12;77.93
78932;BME280;68331;53.362;55.932;2023-12-28T08:51:42;97543.72;;;1.17;77.87
78932;BME280;68331;53.362;55.932;2023-12-28T08:54:08;97539.63;;;1.10;78.26
78932;BME280;68331;53.362;55.932;2023-12-28T08:56:35;97545.75;;;1.07;78.75
78932;BME280;68331;53.362;55.932;2023-12-28T08:59:01;97514.75;;;1.03;79.02
78932;BME280;68331;53.362;55.932;2023-12-28T09:01:27;97520.53;;;1.11;79.01
78932;BME280;68331;53.362;55.932;2023-12-28T09:03:55;97512.09;;;1.04;79.04
78932;BME280;68331;53.362;55.932;2023-12-28T09:06:21;97504.41;;;1.01;79.70
78932;BME280;68331;53.362;55.932;2023-12-28T09:08:50;97501.75;;;1.03;79.62
78932;BME280;68331;53.362;55.932;2023-12-28T09:11:16;97497.50;;;1.00;79.83
78932;BME280;68331;53.362;55.932;2023-12-28T09:13:43;97499.28;;;0.98;79.94
78932;BME280;68331;53.362;55.932;2023-12-28T09:16:13;97475.19;;;0.95;80.19
78932;BME280;68331;53.362;55.932;2023-12-28T09:18:39;97477.88;;;0.91;80.39
78932;BME280;68331;53.362;55.932;2023-12-28T09:21:07;97484.81;;;0.91;80.92
78932;BME280;68331;53.362;55.932;2023-12-28T09:23:34;97485.38;;;1.01;80.88
78932;BME280;68331;53.362;55.932;2023-12-28T09:26:01;97474.06;;;1.03;80.67
78932;BME280;68331;53.362;55.932;2023-12-28T09:28:29;97471.56;;;1.00;80.79
78932;BME280;68331;53.362;55.932;2023-12-28T09:30:55;97458.75;;;0.94;80.71
78932;BME280;68331;53.362;55.932;2023-12-28T09:33:21;97454.72;;;0.85;81.02
78932;BME280;68331;53.362;55.932;2023-12-28T09:35:47;97440.13;;;0.81;81.43
78932;BME280;68331;53.362;55.932;2023-12-28T09:38:14;97447.94;;;0.80;81.57
78932;BME280;68331;53.362;55.932;2023-12-28T09:40:42;97440.28;;;0.77;81.59
78932;BME280;68331;53.362;55.932;2023-12-28T09:43:24;97436.97;;;0.72;81.84
78932;BME280;68331;53.362;55.932;2023-12-28T09:45:51;97442.16;;;0.72;81.72
78932;BME280;68331;53.362;55.932;2023-12-28T09:48:19;97429.91;;;0.77;81.70
78932;BME280;68331;53.362;55.932;2023-12-28T09:50:51;97429.94;;;0.75;81.97
78932;BME280;68331;53.362;55.932;2023-12-28T09:53:22;97414.53;;;0.71;81.87
78932;BME280;68331;53.362;55.932;2023-12-28T09:55:48;97414.63;;;0.67;82.02
78932;BME280;68331;53.362;55.932;2023-12-28T09:58:17;97418.16;;;0.65;82.77
78932;BME280;68331;53.362;55.932;2023-12-28T10:00:45;97411.22;;;0.65;82.70
78932;BME280;68331;53.362;55.932;2023-12-28T10:03:16;97407.69;;;0.68;82.73
78932;BME280;68331;53.362;55.932;2023-12-28T10:05:46;97394.75;;;0.66;82.47
78932;BME280;68331;53.362;55.932;2023-12-28T10:08:13;97397.41;;;0.65;82.57
78932;BME280;68331;53.362;55.932;2023-12-28T10:10:42;97346.53;;;0.33;82.69
78932;BME280;68331;53.362;55.932;2023-12-28T10:13:10;97379.63;;;0.53;82.71
78932;BME280;68331;53.362;55.932;2023-12-28T10:15:36;97371.91;;;0.51;82.36
78932;BME280;68331;53.362;55.932;2023-12-28T10:18:05;97390.19;;;0.46;82.55
78932;BME280;68331;53.362;55.932;2023-12-28T10:20:32;97386.78;;;0.44;82.47
78932;BME280;68331;53.362;55.932;2023-12-28T10:22:59;97389.53;;;0.40;82.63
78932;BME280;68331;53.362;55.932;2023-12-28T10:25:25;97385.53;;;0.30;82.99
78932;BME280;68331;53.362;55.932;2023-12-28T10:27:52;97386.41;;;0.29;83.52
78932;BME280;68331;53.362;55.932;2023-12-28T10:30:20;97383.13;;;0.23;83.20
78932;BME280;68331;53.362;55.932;2023-12-28T10:32:46;97379.97;;;0.14;84.03
78932;BME280;68331;53.362;55.932;2023-12-28T10:35:13;97375.72;;;0.11;83.36
78932;BME280;68331;53.362;55.932;2023-12-28T10:37:40;97377.50;;;0.09;84.11
78932;BME280;68331;53.362;55.932;2023-12-28T10:40:15;97367.94;;;0.11;84.25
78932;BME280;68331;53.362;55.932;2023-12-28T10:43:02;97369.78;;;0.08;84.49
78932;BME280;68331;53.362;55.932;2023-12-28T10:45:31;97358.50;;;0.09;84.85
78932;BME280;68331;53.362;55.932;2023-12-28T10:48:07;97361.16;;;0.07;84.59
78932;BME280;68331;53.362;55.932;2023-12-28T10:50:42;97356.81;;;0.08;84.58
78932;BME280;68331;53.362;55.932;2023-12-28T10:53:38;97355.25;;;0.02;84.83
78932;BME280;68331;53.362;55.932;2023-12-28T10:58:49;97363.16;;;-0.03;84.44
78932;BME280;68331;53.362;55.932;2023-12-28T11:01:26;97354.81;;;-0.12;85.26
78932;BME280;68331;53.362;55.932;2023-12-28T11:06:34;97365.34;;;-0.18;85.38
78932;BME280;68331;53.362;55.932;2023-12-28T11:09:00;97360.25;;;-0.21;85.32
78932;BME280;68331;53.362;55.932;2023-12-28T11:11:27;97371.22;;;-0.12;85.14
78932;BME280;68331;53.362;55.932;2023-12-28T11:13:55;97350.78;;;-0.22;85.27
78932;BME280;68331;53.362;55.932;2023-12-28T11:16:22;97359.44;;;-0.24;85.50
78932;BME280;68331;53.362;55.932;2023-12-28T11:18:49;97369.81;;;-0.24;85.43
78932;BME280;68331;53.362;55.932;2023-12-28T11:21:16;97380.22;;;-0.25;85.69
78932;BME280;68331;53.362;55.932;2023-12-28T11:23:43;97369.97;;;-0.28;85.85
78932;BME280;68331;53.362;55.932;2023-12-28T11:26:20;97375.06;;;-0.27;86.18
78932;BME280;68331;53.362;55.932;2023-12-28T11:28:46;97376.75;;;-0.24;86.24
78932;BME280;68331;53.362;55.932;2023-12-28T11:31:17;97377.50;;;-0.20;86.09
78932;BME280;68331;53.362;55.932;2023-12-28T11:33:47;97376.59;;;-0.19;86.04
78932;BME280;68331;53.362;55.932;2023-12-28T11:36:22;97368.97;;;-0.24;86.30
78932;BME280;68331;53.362;55.932;2023-12-28T11:38:53;97380.22;;;-0.25;86.21
78932;BME280;68331;53.362;55.932;2023-12-28T11:41:20;97373.16;;;-0.20;86.50
78932;BME280;68331;53.362;55.932;2023-12-28T11:43:54;97371.63;;;-0.27;86.41
78932;BME280;68331;53.362;55.932;2023-12-28T11:46:23;97357.78;;;-0.26;86.69
78932;BME280;68331;53.362;55.932;2023-12-28T11:48:49;97358.78;;;-0.30;86.49
78932;BME280;68331;53.362;55.932;2023-12-28T11:51:15;97360.72;;;-0.38;87.19
78932;BME280;68331;53.362;55.932;2023-12-28T11:53:43;97360.78;;;-0.40;87.54
78932;BME280;68331;53.362;55.932;2023-12-28T11:56:10;97358.25;;;-0.41;87.59
78932;BME280;68331;53.362;55.932;2023-12-28T11:58:36;97354.84;;;-0.43;87.77
78932;BME280;68331;53.362;55.932;2023-12-28T12:01:03;97358.34;;;-0.46;87.39
78932;BME280;68331;53.362;55.932;2023-12-28T12:03:29;97353.25;;;-0.48;88.27
78932;BME280;68331;53.362;55.932;2023-12-28T12:05:57;97354.06;;;-0.47;88.01
78932;BME280;68331;53.362;55.932;2023-12-28T12:08:23;97355.75;;;-0.44;88.33
78932;BME280;68331;53.362;55.932;2023-12-28T12:11:00;97347.19;;;-0.48;87.77
78932;BME280;68331;53.362;55.932;2023-12-28T12:13:27;97343.00;;;-0.52;88.56
78932;BME280;68331;53.362;55.932;2023-12-28T12:15:53;97357.59;;;-0.50;88.27
78932;BME280;68331;53.362;55.932;2023-12-28T12:18:20;97360.31;;;-0.54;88.78
78932;BME280;68331;53.362;55.932;2023-12-28T12:20:45;97330.44;;;-0.66;88.63
78932;BME280;68331;53.362;55.932;2023-12-28T12:23:11;97351.75;;;-0.58;88.84
78932;BME280;68331;53.362;55.932;2023-12-28T12:25:38;97357.75;;;-0.56;89.13
78932;BME280;68331;53.362;55.932;2023-12-28T12:28:06;97350.75;;;-0.52;89.03
78932;BME280;68331;53.362;55.932;2023-12-28T12:30:32;97339.50;;;-0.51;88.79
78932;BME280;68331;53.362;55.932;2023-12-28T12:32:58;97332.00;;;-0.60;88.33
78932;BME280;68331;53.362;55.932;2023-12-28T12:35:24;97339.63;;;-0.56;88.38
78932;BME280;68331;53.362;55.932;2023-12-28T12:37:51;97341.47;;;-0.59;88.33
78932;BME280;68331;53.362;55.932;2023-12-28T12:40:17;97338.06;;;-0.61;88.44
78932;BME280;68331;53.362;55.932;2023-12-28T12:42:55;97334.03;;;-0.72;88.52
78932;BME280;68331;53.362;55.932;2023-12-28T12:45:21;97333.94;;;-0.68;88.48
78932;BME280;68331;53.362;55.932;2023-12-28T12:47:51;97339.09;;;-0.67;88.83
78932;BME280;68331;53.362;55.932;2023-12-28T12:50:18;97338.38;;;-0.74;88.78
78932;BME280;68331;53.362;55.932;2023-12-28T12:52:44;97309.53;;;-0.91;89.06
78932;BME280;68331;53.362;55.932;2023-12-28T12:55:14;97340.88;;;-0.69;88.64
78932;BME280;68331;53.362;55.932;2023-12-28T12:57:40;97353.06;;;-0.74;88.86
78932;BME280;68331;53.362;55.932;2023-12-28T13:00:09;97352.06;;;-0.68;89.04
78932;BME280;68331;53.362;55.932;2023-12-28T13:02:35;97351.31;;;-0.72;88.68
78932;BME280;68331;53.362;55.932;2023-12-28T13:05:04;97366.03;;;-0.74;87.99
78932;BME280;68331;53.362;55.932;2023-12-28T13:07:31;97350.72;;;-0.82;88.18
78932;BME280;68331;53.362;55.932;2023-12-28T13:09:57;97342.41;;;-0.95;88.48
78932;BME280;68331;53.362;55.932;2023-12-28T13:12:23;97362.91;;;-0.87;88.16
78932;BME280;68331;53.362;55.932;2023-12-28T13:14:50;97366.47;;;-0.91;88.92